Laurens, SC

4:54 AM EDT on May 27, 2015 (GMT -0400)
Cherokee Hills | | Change Station
CLOSE
Current Station
Personal Weather Station
Location: Greenwood, SC
Elevation: 554 ft
Nearby Weather Stations

Elev 554 ft 34.24 °N, 82.17 °W | Updated 1 minute ago

Fog
Fog
65.4 °F
Feels Like 65.4 °F
N
0.0
Wind Variable Wind from WNW
Gusts 1.0 mph

Today
High -- | Low -- °F
--% Chance of Precip.
Yesterday
High -- | Low -- °F
Precip. -- in
6:18 AM 8:31 PM
Waxing Gibbous, 65% visible
Pressure 30.20 in
Visibility 0.2 miles
Clouds Overcast 200 ft
Dew Point 64 °F
Humidity 96%
Rainfall 0.00 in
Snow Depth Not available.
UV 0 out of 12
Pollen 1.20 out of 12
Air Quality Not available.
Flu Activity Local Activity
METAR KLUX 270855Z AUTO 00000KT 1/4SM FG OVC002 18/18 A3020 RMK AO2

More Conditions Fewer Conditions

Pressure 30.20 in
Visibility 0.2 miles
Clouds Overcast 200 ft
Dew Point 64 °F
Humidity 96%
Rainfall 0.00 in
Snow Depth Not available.
UV 0 out of 12
Pollen 1.20 out of 12
Air Quality Not available.
Flu Activity Local Activity
METAR KLUX 270855Z AUTO 00000KT 1/4SM FG OVC002 18/18 A3020 RMK AO2

More Conditions Fewer Conditions

10-Day Weather Forecast

Almanac

Astronomy

May. 27, 2015 Rise Set
Actual Time
Civil Twilight
Nautical Twilight
Astronomical Twilight
Moon
Length of Visible Light
Length of Day
Tomorrow will be .
, % of the Moon is Illuminated

Today's Extremes

State Highs State Lows

Community

WunderPhotos

Upload Photos

1,824,634 photos uploaded!

WunderBlogs® & News

Nearby

Air Quality

  Air Quality AQ Index Pollutant
Not available.

Snow Depth

Station Depth Elevation

Earthquake Activity

City Distance Mag. Time & Date
Minimum magnitude displayed is 2.5.

Coastal Water Temperatures

Place Temperature

Stations

Nearby Weather Stations

Station Location Temp. Windchill Dew Point Humidity Wind Precip. Elev Updated Type